createdAt,value
2023-03-13T00:00:23.182Z,22.19
2023-03-13T00:02:50.393Z,22.18
2023-03-13T00:05:17.561Z,22.18
2023-03-13T00:07:44.781Z,22.18
2023-03-13T00:10:11.356Z,22.19
2023-03-13T00:12:38.017Z,22.19
2023-03-13T00:15:04.547Z,22.19
2023-03-13T00:17:31.061Z,22.19
2023-03-13T00:19:57.887Z,22.20
2023-03-13T00:22:24.930Z,22.19
2023-03-13T00:24:51.397Z,22.19
2023-03-13T00:27:18.148Z,22.19
2023-03-13T00:29:44.786Z,22.18
2023-03-13T00:32:11.347Z,22.16
2023-03-13T00:34:38.153Z,22.15
2023-03-13T00:37:11.775Z,22.17
2023-03-13T00:39:38.426Z,22.18
2023-03-13T00:42:05.136Z,22.20
2023-03-13T00:44:31.652Z,22.24
2023-03-13T00:46:58.178Z,22.28
2023-03-13T00:49:24.701Z,22.34
2023-03-13T00:51:51.693Z,22.38
2023-03-13T00:54:18.283Z,22.43
2023-03-13T00:56:44.759Z,22.47
2023-03-13T00:59:11.239Z,22.51
2023-03-13T01:01:37.777Z,22.54
2023-03-13T01:04:05.804Z,22.59
2023-03-13T01:06:32.936Z,22.60
2023-03-13T01:08:59.749Z,22.62
2023-03-13T01:11:27.909Z,22.65
2023-03-13T01:13:54.974Z,22.67
2023-03-13T01:16:28.154Z,22.70
2023-03-13T01:18:56.278Z,22.70
2023-03-13T01:21:23.755Z,22.73
2023-03-13T01:23:50.719Z,22.75
2023-03-13T01:26:17.326Z,22.78
2023-03-13T01:28:43.878Z,22.81
2023-03-13T01:31:33.669Z,22.84
2023-03-13T01:34:01.467Z,22.87
2023-03-13T01:36:29.336Z,22.88
2023-03-13T01:38:56.744Z,22.91
2023-03-13T01:41:24.391Z,22.95
2023-03-13T01:43:51.193Z,22.97
2023-03-13T01:46:25.135Z,23.01
2023-03-13T01:49:15.997Z,23.04
2023-03-13T01:51:53.946Z,23.06
2023-03-13T01:54:20.442Z,23.10
2023-03-13T01:56:54.332Z,23.14
2023-03-13T01:59:25.167Z,23.16
2023-03-13T02:01:52.425Z,23.18
2023-03-13T02:04:18.989Z,23.22
2023-03-13T02:06:45.653Z,23.25
2023-03-13T02:09:14.507Z,23.28
2023-03-13T02:11:48.738Z,23.32
2023-03-13T02:14:16.324Z,23.35
2023-03-13T02:16:47.687Z,23.39
2023-03-13T02:19:37.457Z,23.41
2023-03-13T02:22:06.737Z,23.46
2023-03-13T02:24:46.137Z,23.47
2023-03-13T02:27:12.917Z,23.50
2023-03-13T02:29:42.030Z,23.51
2023-03-13T02:32:09.060Z,23.52
2023-03-13T02:34:35.804Z,23.56
2023-03-13T02:37:02.843Z,23.59
2023-03-13T02:39:31.007Z,23.63
2023-03-13T02:41:57.725Z,23.65
2023-03-13T02:44:25.047Z,23.67
2023-03-13T02:46:52.544Z,23.69
2023-03-13T02:49:26.956Z,23.71
2023-03-13T02:51:54.978Z,23.73
2023-03-13T02:54:22.626Z,23.74
2023-03-13T02:56:50.607Z,23.76
2023-03-13T02:59:17.643Z,23.76
2023-03-13T03:01:46.010Z,23.79
2023-03-13T03:04:12.551Z,23.80
2023-03-13T03:06:39.042Z,23.81
2023-03-13T03:09:06.232Z,23.81
2023-03-13T03:11:36.053Z,23.81
2023-03-13T03:14:07.494Z,23.81
2023-03-13T03:16:38.566Z,23.82
2023-03-13T03:19:07.681Z,23.83
2023-03-13T03:21:34.614Z,23.83
2023-03-13T03:24:01.188Z,23.85
2023-03-13T03:26:28.115Z,23.84
2023-03-13T03:28:54.886Z,23.83
2023-03-13T03:31:21.476Z,23.84
2023-03-13T03:33:48.220Z,23.86
2023-03-13T03:36:17.736Z,23.85
2023-03-13T03:38:45.324Z,23.85
2023-03-13T03:41:14.610Z,23.84
2023-03-13T03:43:41.473Z,23.85
2023-03-13T03:46:09.116Z,23.83
2023-03-13T03:48:35.837Z,23.83
2023-03-13T03:51:05.039Z,23.81
2023-03-13T03:53:37.025Z,23.80
2023-03-13T03:56:03.773Z,23.77
2023-03-13T03:58:30.904Z,23.77
2023-03-13T04:01:09.111Z,23.76
2023-03-13T04:03:35.892Z,23.75
2023-03-13T04:06:02.450Z,23.73
2023-03-13T04:08:29.124Z,23.72
2023-03-13T04:10:56.505Z,23.70
2023-03-13T04:13:27.732Z,23.68
2023-03-13T04:15:57.274Z,23.66
2023-03-13T04:18:24.423Z,23.64
2023-03-13T04:20:50.981Z,23.62
2023-03-13T04:23:17.509Z,23.61
2023-03-13T04:25:44.118Z,23.61
2023-03-13T04:28:12.290Z,23.59
2023-03-13T04:30:43.531Z,23.56
2023-03-13T04:33:24.672Z,23.55
2023-03-13T04:36:05.839Z,23.54
2023-03-13T04:38:49.439Z,23.52
2023-03-13T04:41:42.073Z,23.50
2023-03-13T04:44:24.409Z,23.48
2023-03-13T04:46:58.317Z,23.46
2023-03-13T04:49:24.987Z,23.45
2023-03-13T04:52:08.304Z,23.43
2023-03-13T04:55:00.565Z,23.42
2023-03-13T04:57:42.469Z,23.40
2023-03-13T05:00:24.232Z,23.38
2023-03-13T05:03:15.680Z,23.36
2023-03-13T05:05:52.655Z,23.35
2023-03-13T05:08:40.537Z,23.34
2023-03-13T05:11:27.343Z,23.34
2023-03-13T05:14:13.230Z,23.34
2023-03-13T05:16:58.180Z,23.34
2023-03-13T05:20:00.133Z,23.32
2023-03-13T05:22:46.938Z,23.31
2023-03-13T05:25:27.147Z,23.29
2023-03-13T05:28:12.136Z,23.27
2023-03-13T05:31:08.204Z,23.26
2023-03-13T05:33:58.277Z,23.24
2023-03-13T05:36:34.626Z,23.24
2023-03-13T05:39:14.104Z,23.22
2023-03-13T05:42:03.516Z,23.13
2023-03-13T05:44:51.260Z,23.01
2023-03-13T05:47:33.187Z,22.95
2023-03-13T05:50:09.394Z,22.94
2023-03-13T05:52:56.400Z,22.97
2023-03-13T05:55:33.119Z,22.97
2023-03-13T05:58:07.686Z,23.01
2023-03-13T06:00:43.698Z,22.98
2023-03-13T06:03:28.642Z,23.00
2023-03-13T06:05:57.615Z,23.02
2023-03-13T06:08:32.688Z,23.05
2023-03-13T06:11:00.632Z,23.08
2023-03-13T06:13:27.849Z,23.10
2023-03-13T06:15:57.114Z,23.12
2023-03-13T06:18:59.286Z,23.15
2023-03-13T06:21:26.074Z,23.19
2023-03-13T06:23:52.552Z,23.21
2023-03-13T06:26:19.102Z,23.25
2023-03-13T06:28:45.657Z,23.28
2023-03-13T06:31:12.233Z,23.30
2023-03-13T06:33:38.676Z,23.33
2023-03-13T06:36:05.457Z,23.34
2023-03-13T06:38:31.980Z,23.36
2023-03-13T06:40:58.623Z,23.38
2023-03-13T06:43:25.096Z,23.40
2023-03-13T06:45:51.565Z,23.42
2023-03-13T06:48:18.679Z,23.42
2023-03-13T06:50:45.203Z,23.42
2023-03-13T06:53:20.649Z,23.42
2023-03-13T06:55:47.213Z,23.47
2023-03-13T06:58:25.414Z,23.53
2023-03-13T07:00:59.276Z,23.58
2023-03-13T07:03:26.015Z,23.60
2023-03-13T07:05:56.034Z,23.62
2023-03-13T07:08:22.601Z,23.65
2023-03-13T07:10:52.240Z,23.69
2023-03-13T07:13:19.921Z,23.71
2023-03-13T07:15:48.293Z,23.73
2023-03-13T07:18:14.896Z,23.75
2023-03-13T07:20:41.437Z,23.78
2023-03-13T07:23:08.313Z,23.80
2023-03-13T07:25:35.192Z,23.83
2023-03-13T07:28:01.675Z,23.85
2023-03-13T07:30:30.150Z,23.84
2023-03-13T07:32:58.096Z,23.86
2023-03-13T07:35:24.634Z,23.88
2023-03-13T07:37:51.898Z,23.91
2023-03-13T07:40:19.079Z,23.93
2023-03-13T07:42:45.524Z,23.94
2023-03-13T07:45:12.142Z,23.97
2023-03-13T07:47:39.245Z,24.00
2023-03-13T07:50:06.353Z,24.02
2023-03-13T07:52:33.258Z,24.05
2023-03-13T07:54:59.804Z,23.93
2023-03-13T07:57:26.529Z,24.10
2023-03-13T07:59:53.199Z,24.14
2023-03-13T08:02:19.736Z,24.16
2023-03-13T08:04:46.242Z,24.16
2023-03-13T08:07:12.736Z,24.20
2023-03-13T08:09:39.315Z,24.23
2023-03-13T08:12:06.373Z,24.26
2023-03-13T08:14:32.932Z,24.28
2023-03-13T08:16:59.500Z,24.31
2023-03-13T08:19:26.201Z,24.33
2023-03-13T08:21:52.750Z,24.35
2023-03-13T08:24:19.330Z,24.38
2023-03-13T08:26:46.149Z,24.42
2023-03-13T08:29:14.295Z,24.43
2023-03-13T08:31:45.448Z,24.44
2023-03-13T08:34:12.494Z,24.46
2023-03-13T08:36:38.961Z,24.48
2023-03-13T08:39:16.155Z,24.51
2023-03-13T08:41:42.700Z,24.53
2023-03-13T08:44:16.606Z,24.54
2023-03-13T08:46:44.092Z,24.56
2023-03-13T08:49:10.761Z,24.57
2023-03-13T08:51:37.270Z,24.60
2023-03-13T08:54:04.252Z,24.60
2023-03-13T08:56:31.226Z,24.61
2023-03-13T08:58:58.573Z,24.65
2023-03-13T09:01:26.059Z,24.67
2023-03-13T09:03:52.977Z,24.70
2023-03-13T09:06:19.706Z,24.71
2023-03-13T09:08:47.021Z,24.73
2023-03-13T09:11:15.411Z,24.76
2023-03-13T09:13:43.143Z,24.79
2023-03-13T09:16:11.149Z,24.80
2023-03-13T09:18:38.055Z,24.81
2023-03-13T09:21:06.645Z,24.82
2023-03-13T09:23:33.188Z,24.85
2023-03-13T09:25:59.678Z,24.86
2023-03-13T09:28:26.283Z,24.88
2023-03-13T09:30:53.266Z,24.90
2023-03-13T09:33:20.370Z,24.92
2023-03-13T09:35:53.178Z,24.94
2023-03-13T09:38:20.446Z,24.96
2023-03-13T09:40:59.837Z,24.96
2023-03-13T09:43:40.592Z,24.98
2023-03-13T09:46:09.763Z,25.00
2023-03-13T09:48:37.264Z,25.02
2023-03-13T09:51:06.159Z,25.06
2023-03-13T09:53:34.953Z,25.07
2023-03-13T09:56:01.704Z,25.10
2023-03-13T09:58:28.494Z,25.10
2023-03-13T10:00:56.956Z,25.13
2023-03-13T10:03:30.712Z,25.14
2023-03-13T10:05:57.988Z,25.17
2023-03-13T10:08:25.835Z,25.19
2023-03-13T10:11:00.979Z,25.20
2023-03-13T10:13:46.325Z,25.22
2023-03-13T10:16:19.444Z,25.26
2023-03-13T10:18:49.184Z,25.28
2023-03-13T10:21:17.528Z,25.31
2023-03-13T10:23:49.338Z,25.33
2023-03-13T10:26:21.349Z,25.36
2023-03-13T10:28:50.367Z,25.38
2023-03-13T10:31:18.907Z,25.40
2023-03-13T10:33:45.426Z,25.42
2023-03-13T10:36:12.749Z,25.45
2023-03-13T10:38:49.989Z,25.44
2023-03-13T10:41:21.137Z,25.46
2023-03-13T10:43:52.198Z,25.47
2023-03-13T10:46:29.164Z,25.47
2023-03-13T10:48:57.439Z,25.47
2023-03-13T10:51:24.747Z,25.48
2023-03-13T10:53:54.257Z,25.46
2023-03-13T10:56:25.334Z,25.46
2023-03-13T10:58:52.198Z,25.44
2023-03-13T11:01:34.312Z,25.42
2023-03-13T11:04:01.997Z,25.38
2023-03-13T11:06:29.574Z,25.34
2023-03-13T11:09:13.019Z,25.29
2023-03-13T11:11:49.750Z,25.25
2023-03-13T11:14:19.879Z,25.23
2023-03-13T11:16:47.608Z,25.20
2023-03-13T11:19:17.266Z,25.18
2023-03-13T11:21:59.225Z,25.16
2023-03-13T11:24:44.297Z,25.16
2023-03-13T11:27:26.207Z,25.13
2023-03-13T11:29:52.777Z,25.13
2023-03-13T11:32:22.350Z,25.12
2023-03-13T11:34:51.027Z,25.11
2023-03-13T11:37:20.612Z,25.10
2023-03-13T11:39:47.102Z,25.11
2023-03-13T11:42:32.530Z,25.08
2023-03-13T11:45:22.297Z,25.07
2023-03-13T11:47:57.190Z,25.06
2023-03-13T11:50:26.481Z,25.06
2023-03-13T11:52:58.488Z,25.03
2023-03-13T11:55:43.958Z,25.01
2023-03-13T11:58:28.967Z,25.01
2023-03-13T12:01:13.048Z,24.99
2023-03-13T12:03:45.096Z,24.98
2023-03-13T12:06:27.329Z,24.95
2023-03-13T12:08:56.052Z,24.94
2023-03-13T12:11:25.530Z,24.95
2023-03-13T12:13:51.997Z,24.94
2023-03-13T12:16:19.898Z,24.95
2023-03-13T12:18:46.848Z,24.94
2023-03-13T12:21:29.537Z,24.94
2023-03-13T12:24:14.884Z,24.94
2023-03-13T12:26:42.845Z,24.92
2023-03-13T12:29:15.308Z,24.91
2023-03-13T12:31:53.118Z,24.89
2023-03-13T12:34:27.797Z,24.89
2023-03-13T12:37:10.221Z,24.89
2023-03-13T12:39:43.305Z,24.89
2023-03-13T12:42:48.645Z,24.89
2023-03-13T12:45:18.655Z,24.87
2023-03-13T12:48:03.626Z,24.86
2023-03-13T12:50:32.765Z,24.85
2023-03-13T12:53:06.140Z,24.83
2023-03-13T12:55:32.605Z,24.82
2023-03-13T12:58:01.948Z,24.82
2023-03-13T13:00:29.188Z,24.83
2023-03-13T13:03:06.041Z,24.82
2023-03-13T13:05:32.637Z,24.82
2023-03-13T13:07:59.729Z,24.82
2023-03-13T13:10:28.749Z,24.82
2023-03-13T13:13:13.882Z,24.81
2023-03-13T13:15:46.711Z,24.81
2023-03-13T13:18:24.786Z,24.81
2023-03-13T13:21:18.142Z,24.80
2023-03-13T13:23:48.165Z,24.80
2023-03-13T13:26:41.971Z,24.79
2023-03-13T13:29:11.258Z,24.79
2023-03-13T13:31:43.881Z,24.79
2023-03-13T13:34:36.215Z,24.80
2023-03-13T13:37:11.729Z,24.79
2023-03-13T13:39:43.533Z,24.79
2023-03-13T13:42:28.903Z,24.78
2023-03-13T13:45:14.035Z,24.78
2023-03-13T13:47:40.702Z,24.78
2023-03-13T13:50:20.417Z,24.78
2023-03-13T13:52:47.471Z,24.78
2023-03-13T13:55:25.883Z,24.78
2023-03-13T13:57:58.861Z,24.79
2023-03-13T14:00:26.894Z,24.78
2023-03-13T14:02:54.670Z,24.77
2023-03-13T14:05:26.977Z,24.79
2023-03-13T14:08:00.931Z,24.79
2023-03-13T14:10:37.820Z,24.81
2023-03-13T14:13:14.524Z,24.80
2023-03-13T14:15:41.817Z,24.79
2023-03-13T14:18:13.256Z,24.80
2023-03-13T14:20:41.090Z,24.79
2023-03-13T14:23:08.941Z,24.80
2023-03-13T14:25:42.982Z,24.81
2023-03-13T14:28:20.316Z,24.82
2023-03-13T14:30:47.521Z,24.81
2023-03-13T14:33:14.112Z,24.81
2023-03-13T14:35:40.889Z,24.82
2023-03-13T14:38:07.504Z,24.81
2023-03-13T14:40:37.072Z,24.81
2023-03-13T14:43:04.011Z,24.81
2023-03-13T14:45:34.736Z,24.80
2023-03-13T14:48:05.513Z,24.80
2023-03-13T14:50:32.020Z,24.80
2023-03-13T14:53:00.789Z,24.79
2023-03-13T14:55:28.900Z,24.79
2023-03-13T14:57:56.135Z,24.79
2023-03-13T15:00:30.148Z,24.79
2023-03-13T15:03:32.450Z,24.79
2023-03-13T15:06:05.606Z,24.78
2023-03-13T15:08:32.947Z,24.78
2023-03-13T15:10:59.521Z,24.78
2023-03-13T15:13:29.241Z,24.77
2023-03-13T15:15:56.307Z,24.75
2023-03-13T15:18:23.839Z,24.75
2023-03-13T15:20:51.223Z,24.75
2023-03-13T15:23:20.766Z,24.74
2023-03-13T15:25:47.345Z,24.73
2023-03-13T15:28:18.154Z,24.73
2023-03-13T15:30:45.050Z,24.75
2023-03-13T15:33:15.246Z,24.74
2023-03-13T15:35:42.831Z,24.75
2023-03-13T15:38:11.348Z,24.74
2023-03-13T15:40:38.253Z,24.75
2023-03-13T15:43:04.703Z,24.74
2023-03-13T15:45:31.223Z,24.75
2023-03-13T15:47:58.637Z,24.73
2023-03-13T15:50:31.237Z,24.73
2023-03-13T15:52:58.100Z,24.72
2023-03-13T15:55:25.628Z,24.72
2023-03-13T15:57:52.183Z,24.71
2023-03-13T16:00:19.877Z,24.70
2023-03-13T16:02:46.701Z,24.70
2023-03-13T16:05:13.446Z,24.71
2023-03-13T16:07:40.044Z,24.70
2023-03-13T16:10:12.421Z,24.70
2023-03-13T16:12:38.969Z,24.69
2023-03-13T16:15:05.886Z,24.70
2023-03-13T16:17:32.550Z,24.70
2023-03-13T16:19:59.103Z,24.70
2023-03-13T16:22:25.732Z,24.69
2023-03-13T16:24:52.195Z,24.66
2023-03-13T16:27:20.995Z,24.62
2023-03-13T16:29:47.575Z,24.58
2023-03-13T16:32:15.002Z,24.55
2023-03-13T16:34:41.457Z,24.54
2023-03-13T16:37:11.553Z,24.54
2023-03-13T16:39:38.028Z,24.54
2023-03-13T16:42:04.632Z,24.55
2023-03-13T16:44:31.080Z,24.55
2023-03-13T16:47:05.573Z,24.53
2023-03-13T16:49:32.598Z,24.50
2023-03-13T16:52:00.153Z,24.51
2023-03-13T16:54:26.659Z,24.51
2023-03-13T16:56:53.179Z,24.52
2023-03-13T16:59:21.486Z,24.49
2023-03-13T17:01:48.139Z,24.49
2023-03-13T17:04:14.722Z,24.49
2023-03-13T17:06:42.408Z,24.49
2023-03-13T17:09:15.759Z,24.49
2023-03-13T17:11:42.441Z,24.49
2023-03-13T17:14:09.588Z,24.49
2023-03-13T17:16:37.176Z,24.49
2023-03-13T17:19:03.891Z,24.48
2023-03-13T17:21:31.887Z,24.48
2023-03-13T17:24:00.406Z,24.47
2023-03-13T17:26:27.949Z,24.48
2023-03-13T17:28:55.845Z,24.48
2023-03-13T17:31:22.923Z,24.48
2023-03-13T17:33:51.016Z,24.48
2023-03-13T17:36:22.352Z,24.49
2023-03-13T17:38:50.467Z,24.48
2023-03-13T17:41:18.447Z,24.48
2023-03-13T17:43:44.922Z,24.47
2023-03-13T17:46:15.478Z,24.48
2023-03-13T17:48:42.263Z,24.48
2023-03-13T17:51:12.859Z,24.46
2023-03-13T17:53:39.330Z,24.44
2023-03-13T17:56:11.702Z,24.47
2023-03-13T17:58:39.321Z,24.44
2023-03-13T18:01:06.174Z,24.44
2023-03-13T18:03:32.683Z,24.44
2023-03-13T18:05:59.758Z,24.51
2023-03-13T18:08:26.246Z,24.55
2023-03-13T18:10:52.760Z,24.58
2023-03-13T18:13:19.860Z,24.57
2023-03-13T18:15:46.409Z,24.55
2023-03-13T18:18:14.396Z,24.54
2023-03-13T18:20:40.899Z,24.52
2023-03-13T18:23:07.463Z,24.51
2023-03-13T18:25:34.077Z,24.49
2023-03-13T18:28:00.655Z,24.47
2023-03-13T18:30:27.249Z,24.44
2023-03-13T18:32:53.938Z,24.43
2023-03-13T18:35:20.549Z,24.41
2023-03-13T18:37:47.529Z,24.39
2023-03-13T18:40:24.407Z,24.38
2023-03-13T18:42:51.142Z,24.38
2023-03-13T18:45:19.179Z,24.37
2023-03-13T18:47:45.759Z,24.37
2023-03-13T18:50:26.505Z,24.35
2023-03-13T18:52:55.177Z,24.35
2023-03-13T18:55:22.556Z,24.34
2023-03-13T18:57:49.174Z,24.33
2023-03-13T19:00:17.577Z,24.33
2023-03-13T19:02:44.480Z,24.32
2023-03-13T19:05:11.067Z,24.33
2023-03-13T19:07:37.557Z,24.32
2023-03-13T19:10:05.082Z,24.33
2023-03-13T19:12:31.603Z,24.31
2023-03-13T19:14:58.355Z,24.32
2023-03-13T19:17:28.904Z,24.32
2023-03-13T19:19:57.170Z,24.31
2023-03-13T19:22:24.326Z,24.31
2023-03-13T19:24:50.830Z,24.31
2023-03-13T19:27:17.382Z,24.30
2023-03-13T19:29:44.842Z,24.30
2023-03-13T19:32:12.427Z,24.30
2023-03-13T19:34:38.897Z,24.30
2023-03-13T19:37:09.963Z,24.29
2023-03-13T19:39:36.487Z,24.27
2023-03-13T19:42:05.976Z,24.27
2023-03-13T19:44:32.765Z,24.27
2023-03-13T19:47:00.413Z,24.28
2023-03-13T19:49:27.586Z,24.28
2023-03-13T19:51:54.091Z,24.27
2023-03-13T19:54:20.589Z,24.27
2023-03-13T19:56:47.310Z,24.26
2023-03-13T19:59:17.454Z,24.23
2023-03-13T20:01:44.111Z,24.23
2023-03-13T20:04:10.890Z,24.23
2023-03-13T20:06:39.784Z,24.24
2023-03-13T20:09:09.002Z,24.24
2023-03-13T20:11:35.857Z,24.24
2023-03-13T20:14:02.461Z,24.25
2023-03-13T20:16:34.485Z,24.24
2023-03-13T20:19:01.854Z,24.25
2023-03-13T20:21:29.472Z,24.25
2023-03-13T20:23:57.657Z,24.26
2023-03-13T20:26:25.048Z,24.26
2023-03-13T20:28:52.078Z,24.25
2023-03-13T20:31:19.798Z,24.25
2023-03-13T20:33:46.625Z,24.25
2023-03-13T20:36:13.944Z,24.25
2023-03-13T20:38:40.745Z,24.24
2023-03-13T20:41:07.185Z,24.23
2023-03-13T20:43:34.105Z,24.23
2023-03-13T20:46:00.637Z,24.22
2023-03-13T20:48:28.425Z,24.23
2023-03-13T20:50:56.069Z,24.23
2023-03-13T20:53:23.355Z,24.22
2023-03-13T20:55:50.183Z,24.21
2023-03-13T20:58:17.069Z,24.20
2023-03-13T21:00:43.493Z,24.20
2023-03-13T21:03:10.087Z,24.18
2023-03-13T21:05:40.004Z,24.18
2023-03-13T21:08:06.652Z,24.17
2023-03-13T21:10:35.232Z,24.15
2023-03-13T21:13:01.735Z,24.14
2023-03-13T21:15:28.146Z,24.12
2023-03-13T21:17:56.547Z,24.11
2023-03-13T21:20:23.407Z,24.10
2023-03-13T21:22:49.864Z,24.09
2023-03-13T21:25:16.703Z,24.07
2023-03-13T21:27:46.456Z,24.07
2023-03-13T21:30:15.153Z,24.06
2023-03-13T21:32:41.741Z,24.05
2023-03-13T21:35:09.976Z,24.03
2023-03-13T21:37:36.697Z,24.03
2023-03-13T21:40:04.827Z,24.02
2023-03-13T21:42:31.294Z,24.02
2023-03-13T21:44:58.956Z,24.01
2023-03-13T21:47:25.904Z,24.00
2023-03-13T21:49:55.727Z,23.99
2023-03-13T21:52:22.764Z,23.99
2023-03-13T21:54:49.401Z,24.00
2023-03-13T21:57:15.892Z,24.00
2023-03-13T21:59:42.635Z,24.00
2023-03-13T22:02:12.783Z,24.00
2023-03-13T22:04:39.477Z,24.00
2023-03-13T22:07:05.988Z,24.00
2023-03-13T22:09:33.012Z,23.99
2023-03-13T22:11:59.556Z,23.99
2023-03-13T22:14:27.941Z,23.99
2023-03-13T22:16:54.725Z,23.98
2023-03-13T22:19:22.933Z,23.98
2023-03-13T22:21:50.118Z,23.98
2023-03-13T22:24:16.718Z,23.97
2023-03-13T22:26:43.207Z,23.97
2023-03-13T22:29:09.741Z,23.97
2023-03-13T22:31:36.233Z,23.96
2023-03-13T22:34:02.863Z,23.96
2023-03-13T22:36:29.458Z,23.95
2023-03-13T22:38:55.878Z,23.94
2023-03-13T22:41:22.337Z,23.94
2023-03-13T22:43:48.780Z,23.95
2023-03-13T22:46:15.464Z,23.93
2023-03-13T22:48:42.038Z,23.94
2023-03-13T22:51:09.507Z,23.93
2023-03-13T22:53:36.369Z,23.93
2023-03-13T22:56:03.422Z,23.92
2023-03-13T22:58:29.875Z,23.91
2023-03-13T23:00:56.609Z,23.92
2023-03-13T23:03:23.161Z,23.91
2023-03-13T23:05:49.811Z,23.90
2023-03-13T23:08:17.680Z,23.91
2023-03-13T23:10:45.039Z,23.89
2023-03-13T23:13:12.393Z,23.90
2023-03-13T23:15:55.290Z,23.88
2023-03-13T23:18:23.844Z,23.90
2023-03-13T23:20:50.384Z,23.88
2023-03-13T23:23:16.852Z,23.89
2023-03-13T23:25:43.752Z,23.89
2023-03-13T23:28:10.308Z,23.88
2023-03-13T23:30:36.922Z,23.88
2023-03-13T23:33:04.156Z,23.88
2023-03-13T23:35:30.602Z,23.89
2023-03-13T23:37:57.545Z,23.88
2023-03-13T23:40:24.619Z,23.87
2023-03-13T23:42:51.218Z,23.87
2023-03-13T23:45:18.454Z,23.86
2023-03-13T23:47:45.105Z,23.86
2023-03-13T23:50:12.393Z,23.85
2023-03-13T23:52:39.203Z,23.85
2023-03-13T23:55:07.772Z,23.85
2023-03-13T23:57:34.298Z,23.83
